Time;durP1;ratioP1;P1;durP2;ratioP2;P2;SDS_P1;SDS_P2;PMS_P1;PMS_P2;Temp;Humidity;BMP_temperature;BMP_pressure;BME280_temperature;BME280_humidity;BME280_pressure;Samples;Min_cycle;Max_cycle;Signal;HPM_P1;HPM_P2
2023/09/16 00:02:17;;;;;;;12.65;7.68;;;;;;;25.01;43.73;101556.50;4979041;28;20366;-35
2023/09/16 00:04:44;;;;;;;11.82;7.40;;;;;;;24.98;43.54;101548.72;4982479;28;20050;-35
2023/09/16 00:07:11;;;;;;;12.43;8.13;;;;;;;24.95;43.88;101547.19;4982484;28;20058;-35
2023/09/16 00:09:38;;;;;;;11.95;7.50;;;;;;;24.94;43.59;101558.25;4982237;28;20054;-35
2023/09/16 00:12:05;;;;;;;11.90;8.48;;;;;;;24.92;44.24;101563.00;4984966;28;20054;-35
2023/09/16 00:14:31;;;;;;;12.20;8.07;;;;;;;24.89;44.24;101558.78;4980529;28;20057;-35
2023/09/16 00:17:00;;;;;;;12.20;8.57;;;;;;;24.86;43.89;101551.00;4983745;28;20188;-35
2023/09/16 00:19:27;;;;;;;11.68;7.97;;;;;;;24.85;43.83;101552.06;4982354;28;20144;-35
2023/09/16 00:21:54;;;;;;;11.88;7.97;;;;;;;24.83;44.32;101560.34;4984263;28;20101;-35
2023/09/16 00:24:20;;;;;;;10.43;7.30;;;;;;;24.81;43.76;101558.84;4985798;28;20053;-35
2023/09/16 00:26:47;;;;;;;10.13;7.28;;;;;;;24.79;44.48;101553.59;4984900;28;20336;-35
2023/09/16 00:29:14;;;;;;;11.25;7.20;;;;;;;24.76;44.43;101547.69;4983896;28;20074;-35
2023/09/16 00:31:40;;;;;;;9.15;6.80;;;;;;;24.75;44.03;101541.44;4986779;28;20109;-35
2023/09/16 00:34:07;;;;;;;10.50;7.32;;;;;;;24.73;44.45;101540.78;4986581;28;20150;-35
2023/09/16 00:36:34;;;;;;;8.98;6.75;;;;;;;24.71;44.03;101536.56;4986011;28;20120;-35
2023/09/16 00:39:00;;;;;;;10.27;6.90;;;;;;;24.69;44.10;101544.88;4981614;28;21269;-35
2023/09/16 00:41:27;;;;;;;10.25;6.97;;;;;;;24.67;44.41;101538.78;4986339;28;20054;-35
2023/09/16 00:43:53;;;;;;;11.20;6.95;;;;;;;24.66;44.05;101537.09;4987281;28;20046;-35
2023/09/16 00:46:20;;;;;;;8.88;6.28;;;;;;;24.65;44.49;101537.28;4985310;28;20116;-35
2023/09/16 00:48:46;;;;;;;10.40;6.75;;;;;;;24.62;44.33;101533.91;4987919;28;20038;-35
2023/09/16 00:51:14;;;;;;;9.93;6.75;;;;;;;24.62;44.70;101536.63;4985246;28;20177;-35
2023/09/16 00:53:43;;;;;;;9.77;6.63;;;;;;;24.60;44.59;101530.56;4984402;28;20047;-35
2023/09/16 00:56:09;;;;;;;10.40;7.47;;;;;;;24.59;44.48;101534.25;4987906;28;20058;-35
2023/09/16 00:58:37;;;;;;;10.27;7.15;;;;;;;24.57;44.87;101541.75;4989453;28;20427;-35
2023/09/16 01:01:03;;;;;;;9.70;6.97;;;;;;;24.57;44.11;101540.91;4988757;28;20081;-35
2023/09/16 01:03:35;;;;;;;9.10;6.47;;;;;;;24.55;44.77;101541.06;4986673;28;20081;-35
2023/09/16 01:06:06;;;;;;;9.85;6.40;;;;;;;24.55;44.67;101534.81;4988695;28;20141;-35
2023/09/16 01:08:36;;;;;;;7.75;5.75;;;;;;;24.53;44.47;101543.13;4983862;28;20425;-35
2023/09/16 01:11:05;;;;;;;9.40;6.07;;;;;;;24.53;44.72;101543.13;4985813;28;20097;-35
2023/09/16 01:13:37;;;;;;;8.77;6.00;;;;;;;24.52;44.75;101538.75;4989438;28;20073;-35
2023/09/16 01:16:15;;;;;;;9.23;6.32;;;;;;;24.51;44.99;101544.31;4984583;28;22173;-35
2023/09/16 01:18:47;;;;;;;8.68;5.85;;;;;;;24.51;44.79;101541.59;4984920;28;20046;-35
2023/09/16 01:21:15;;;;;;;8.98;6.38;;;;;;;24.51;44.22;101542.44;4987056;28;20100;-35
2023/09/16 01:23:43;;;;;;;9.57;6.32;;;;;;;24.50;44.30;101545.34;4984238;28;20086;-35
2023/09/16 01:26:10;;;;;;;8.85;5.93;;;;;;;24.49;44.91;101539.09;4984312;28;20183;-35
2023/09/16 01:28:37;;;;;;;7.45;5.85;;;;;;;24.47;44.44;101535.69;4986324;28;20375;-35
2023/09/16 01:31:07;;;;;;;8.98;5.70;;;;;;;24.46;44.98;101534.03;4983574;28;20128;-35
2023/09/16 01:33:41;;;;;;;7.80;5.78;;;;;;;24.45;44.28;101532.34;4986054;28;20050;-35
2023/09/16 01:36:13;;;;;;;8.85;6.00;;;;;;;24.45;44.70;101526.94;4984641;28;20046;-35
2023/09/16 01:38:43;;;;;;;8.65;5.85;;;;;;;24.43;44.64;101528.94;4985549;28;20050;-35
2023/09/16 01:41:11;;;;;;;8.63;5.97;;;;;;;24.41;44.25;101528.31;4986965;28;20082;-35
2023/09/16 01:43:39;;;;;;;7.13;5.32;;;;;;;24.40;45.02;101515.75;4985193;28;20058;-35
2023/09/16 01:46:08;;;;;;;7.60;5.70;;;;;;;24.39;44.69;101516.78;4984175;28;20498;-35
2023/09/16 01:48:35;;;;;;;7.88;5.90;;;;;;;24.37;44.30;101524.22;4986309;28;20050;-35
2023/09/16 01:51:13;;;;;;;8.45;5.68;;;;;;;24.34;45.09;101514.59;4983847;28;20055;-35
2023/09/16 01:53:40;;;;;;;7.88;5.47;;;;;;;24.34;44.22;101516.47;4984029;28;20054;-35
2023/09/16 01:56:06;;;;;;;7.43;5.50;;;;;;;24.33;45.07;101517.50;4987833;28;20096;-35
2023/09/16 01:58:33;;;;;;;7.63;5.22;;;;;;;24.31;44.37;101516.81;4985375;28;20046;-35
2023/09/16 02:01:03;;;;;;;7.70;5.45;;;;;;;24.31;44.70;101519.53;4983934;28;20327;-35
2023/09/16 02:03:31;;;;;;;7.53;5.20;;;;;;;24.30;45.16;101517.84;4983507;28;20137;-35
2023/09/16 02:05:58;;;;;;;6.43;4.55;;;;;;;24.28;44.43;101511.75;4986679;28;20456;-35
2023/09/16 02:08:24;;;;;;;8.50;5.38;;;;;;;24.27;44.49;101520.91;4985462;28;20365;-35
2023/09/16 02:10:51;;;;;;;7.25;5.25;;;;;;;24.25;44.78;101521.09;4982223;28;21721;-35
2023/09/16 02:13:17;;;;;;;8.18;5.60;;;;;;;24.26;44.73;101516.50;4979748;28;20137;-35
2023/09/16 02:15:45;;;;;;;7.05;4.95;;;;;;;24.25;44.89;101520.25;4986249;28;20050;-35
2023/09/16 02:18:12;;;;;;;8.00;5.47;;;;;;;24.24;45.10;101513.13;4983653;28;20062;-35
2023/09/16 02:20:38;;;;;;;7.40;5.22;;;;;;;24.23;44.50;101517.69;4982859;28;20405;-35
2023/09/16 02:23:06;;;;;;;6.32;4.25;;;;;;;24.22;45.17;101524.16;4983668;28;20389;-35
2023/09/16 02:25:33;;;;;;;6.93;4.80;;;;;;;24.21;45.01;101524.34;4982318;28;20578;-35
2023/09/16 02:28:00;;;;;;;7.88;4.97;;;;;;;24.20;44.78;101523.50;4982153;28;20046;-35
2023/09/16 02:30:27;;;;;;;7.18;5.28;;;;;;;24.20;44.84;101520.78;4986919;28;20141;-35
2023/09/16 02:32:54;;;;;;;7.85;5.10;;;;;;;24.20;44.47;101519.91;4985728;28;20046;-35
2023/09/16 02:35:20;;;;;;;7.38;5.45;;;;;;;24.19;44.77;101520.94;4982767;28;20065;-35
2023/09/16 02:37:47;;;;;;;6.68;4.90;;;;;;;24.19;44.99;101523.66;4985083;28;20082;-35
2023/09/16 02:40:13;;;;;;;5.45;4.35;;;;;;;24.19;44.72;101521.78;4986992;28;20042;-35
2023/09/16 02:42:40;;;;;;;6.18;4.68;;;;;;;24.18;45.22;101525.53;4983831;28;20058;-35
2023/09/16 02:45:07;;;;;;;6.45;4.95;;;;;;;24.17;44.75;101521.13;4985033;28;20053;-35
2023/09/16 02:47:33;;;;;;;6.40;4.40;;;;;;;24.17;45.31;101523.00;4982521;28;20430;-35
2023/09/16 02:50:00;;;;;;;7.55;5.20;;;;;;;24.15;44.82;101523.16;4984845;28;20338;-35
2023/09/16 02:52:27;;;;;;;6.18;4.50;;;;;;;24.14;44.59;101522.31;4983710;28;20065;-35
2023/09/16 02:54:54;;;;;;;5.75;4.18;;;;;;;24.13;44.97;101520.66;4986953;28;20348;-35
2023/09/16 02:57:20;;;;;;;6.22;4.53;;;;;;;24.12;44.83;101516.25;4983979;28;20047;-35
2023/09/16 02:59:47;;;;;;;5.20;4.22;;;;;;;24.12;44.72;101515.38;4988178;28;20323;-35
2023/09/16 03:02:14;;;;;;;5.63;4.20;;;;;;;24.10;45.16;101518.28;4981727;28;20529;-35
2023/09/16 03:04:41;;;;;;;5.97;4.30;;;;;;;24.09;44.74;101508.47;4983266;28;20042;-35
2023/09/16 03:07:08;;;;;;;6.18;4.25;;;;;;;24.08;45.06;101517.63;4986698;28;20883;-35
2023/09/16 03:09:34;;;;;;;6.50;4.85;;;;;;;24.07;45.34;101510.50;4986707;28;20046;-35
2023/09/16 03:12:01;;;;;;;6.68;4.05;;;;;;;24.06;45.46;101510.69;4985407;28;20057;-35
2023/09/16 03:14:28;;;;;;;4.85;3.78;;;;;;;24.04;45.07;101519.00;4983589;28;20050;-35
2023/09/16 03:16:55;;;;;;;6.13;4.50;;;;;;;24.03;44.66;101511.88;4990000;28;20141;-35
2023/09/16 03:19:22;;;;;;;5.78;4.20;;;;;;;24.02;44.79;101499.38;4987965;28;20053;-35
2023/09/16 03:21:49;;;;;;;6.05;4.43;;;;;;;24.01;45.25;101503.09;4984908;28;20077;-35
2023/09/16 03:24:16;;;;;;;4.80;3.67;;;;;;;24.00;45.09;101504.13;4982568;28;20046;-35
2023/09/16 03:26:42;;;;;;;6.10;3.80;;;;;;;24.00;45.36;101504.13;4987071;28;20050;-35
2023/09/16 03:29:11;;;;;;;4.80;3.65;;;;;;;23.98;45.26;101500.75;4985912;28;20051;-35
2023/09/16 03:31:37;;;;;;;5.22;3.83;;;;;;;23.98;45.56;101497.19;4983742;28;20047;-35
2023/09/16 03:34:04;;;;;;;6.15;3.90;;;;;;;23.97;45.49;101499.06;4982465;28;20450;-35
2023/09/16 03:36:30;;;;;;;5.93;3.95;;;;;;;23.96;44.83;101493.81;4984167;28;20069;-35
2023/09/16 03:38:57;;;;;;;4.43;3.45;;;;;;;23.95;45.45;101490.25;4982756;28;20226;-35
2023/09/16 03:41:24;;;;;;;5.15;3.58;;;;;;;23.95;45.46;101492.97;4984925;28;20058;-35
2023/09/16 03:43:50;;;;;;;4.75;3.40;;;;;;;23.94;45.33;101487.75;4983446;28;20457;-35
2023/09/16 03:46:17;;;;;;;4.57;3.53;;;;;;;23.92;45.10;101490.63;4986006;28;20050;-35
2023/09/16 03:48:44;;;;;;;7.03;3.88;;;;;;;23.92;45.33;101482.53;4982387;28;20465;-35
2023/09/16 03:51:10;;;;;;;5.55;3.65;;;;;;;23.92;45.49;101482.53;4984327;28;20064;-35
2023/09/16 03:53:37;;;;;;;4.93;3.95;;;;;;;23.92;45.17;101479.81;4983542;28;20390;-35
2023/09/16 03:56:21;;;;;;;5.38;3.95;;;;;;;23.90;45.11;101479.13;4983452;28;20050;-35
2023/09/16 03:58:48;;;;;;;5.15;3.50;;;;;;;23.89;45.27;101480.16;4978718;28;20069;-35
2023/09/16 04:01:15;;;;;;;7.00;4.32;;;;;;;23.88;45.57;101481.19;4980219;28;20081;-35
2023/09/16 04:03:42;;;;;;;3.75;3.13;;;;;;;23.87;45.12;101474.06;4981241;28;20823;-35
2023/09/16 04:06:09;;;;;;;5.43;3.75;;;;;;;23.86;45.12;101469.66;4979716;28;20057;-35
2023/09/16 04:08:36;;;;;;;4.75;3.22;;;;;;;23.85;44.99;101476.97;4984019;28;20548;-35
2023/09/16 04:11:09;;;;;;;6.03;3.72;;;;;;;23.86;45.23;101477.78;4982202;28;20370;-35
2023/09/16 04:13:36;;;;;;;5.25;3.85;;;;;;;23.85;45.38;101476.97;4982756;28;20046;-35
2023/09/16 04:16:02;;;;;;;4.47;3.28;;;;;;;23.84;45.45;101469.00;4981135;28;20054;-35
2023/09/16 04:18:29;;;;;;;3.90;2.90;;;;;;;23.84;45.44;101475.28;4979684;28;20061;-35
2023/09/16 04:20:56;;;;;;;3.80;3.00;;;;;;;23.82;45.71;101471.88;4983138;28;20121;-35
2023/09/16 04:23:23;;;;;;;4.25;3.42;;;;;;;23.83;45.01;101478.97;4981519;28;20105;-35
2023/09/16 04:25:57;;;;;;;3.70;2.75;;;;;;;23.81;45.08;101475.63;4983272;28;20276;-35
2023/09/16 04:28:24;;;;;;;5.05;3.08;;;;;;;23.82;45.23;101477.31;4982148;28;20054;-35
2023/09/16 04:30:52;;;;;;;4.65;3.22;;;;;;;23.81;45.14;101475.63;4980595;28;20046;-35
2023/09/16 04:33:20;;;;;;;4.45;3.13;;;;;;;23.80;45.59;101479.34;4979520;28;20438;-35
2023/09/16 04:35:51;;;;;;;4.82;3.08;;;;;;;23.81;45.06;101481.03;4982475;28;20054;-35
2023/09/16 04:38:18;;;;;;;4.22;3.30;;;;;;;23.81;45.09;101474.78;4983113;28;20043;-35
2023/09/16 04:40:47;;;;;;;3.90;2.78;;;;;;;23.79;44.84;101477.66;4979611;28;20130;-35
2023/09/16 04:43:14;;;;;;;3.78;2.80;;;;;;;23.79;45.00;101474.94;4979061;28;20438;-35
2023/09/16 04:45:45;;;;;;;3.90;2.75;;;;;;;23.79;45.67;101474.09;4980373;28;20449;-35
2023/09/16 04:48:13;;;;;;;4.43;2.95;;;;;;;23.78;45.56;101473.25;4980624;28;20129;-35
2023/09/16 04:50:42;;;;;;;3.90;3.20;;;;;;;23.77;44.97;101471.59;4983154;28;20743;-35
2023/09/16 04:53:12;;;;;;;3.72;2.75;;;;;;;23.77;45.31;101473.44;4981955;28;20832;-35
2023/09/16 04:55:41;;;;;;;3.78;2.97;;;;;;;23.76;44.99;101469.91;4980879;28;20149;-36
2023/09/16 04:58:08;;;;;;;5.10;3.28;;;;;;;23.76;45.62;101469.03;4978852;28;20066;-35
2023/09/16 05:00:35;;;;;;;4.75;3.17;;;;;;;23.76;45.42;101460.91;4980033;28;20047;-36
2023/09/16 05:03:02;;;;;;;4.25;3.00;;;;;;;23.74;45.07;101458.41;4982944;28;20816;-35
2023/09/16 05:05:30;;;;;;;4.60;3.17;;;;;;;23.73;45.45;101462.13;4981346;28;20051;-36
2023/09/16 05:07:56;;;;;;;4.00;3.30;;;;;;;23.73;45.60;101464.00;4986632;28;20133;-36
2023/09/16 05:10:23;;;;;;;4.45;2.92;;;;;;;23.71;44.97;101461.44;4986513;28;20039;-36
2023/09/16 05:12:50;;;;;;;4.30;3.00;;;;;;;23.70;45.47;101464.34;4983708;28;20457;-36
2023/09/16 05:15:16;;;;;;;4.05;3.05;;;;;;;23.70;45.01;101472.47;4983216;28;20042;-35
2023/09/16 05:17:43;;;;;;;3.80;2.78;;;;;;;23.69;45.14;101470.78;4983557;28;20275;-35
2023/09/16 05:20:10;;;;;;;3.72;2.60;;;;;;;23.68;45.59;101463.66;4982560;28;20050;-35
2023/09/16 05:22:38;;;;;;;3.60;2.85;;;;;;;23.67;44.87;101470.94;4985928;28;20148;-36
2023/09/16 05:25:06;;;;;;;3.15;2.70;;;;;;;23.67;45.59;101464.69;4983804;28;20055;-36
2023/09/16 05:27:32;;;;;;;5.28;3.22;;;;;;;23.65;45.30;101464.84;4982820;28;20050;-36
2023/09/16 05:30:01;;;;;;;3.20;2.75;;;;;;;23.66;45.44;101471.13;5017149;28;20113;-36
2023/09/16 05:32:29;;;;;;;3.05;2.38;;;;;;;23.66;45.13;101473.81;4982463;28;20446;-35
2023/09/16 05:34:56;;;;;;;3.92;2.80;;;;;;;23.65;45.42;101475.66;4981650;28;20069;-35
2023/09/16 05:37:23;;;;;;;3.47;2.58;;;;;;;23.64;45.22;101469.41;4978045;28;20168;-35
2023/09/16 05:39:49;;;;;;;3.50;2.83;;;;;;;23.64;45.65;101474.81;4981473;28;20058;-36
2023/09/16 05:42:16;;;;;;;2.75;2.40;;;;;;;23.63;45.81;101467.69;4982605;28;20536;-36
2023/09/16 05:44:43;;;;;;;3.92;2.67;;;;;;;23.63;45.17;101473.13;4981965;28;20046;-35
2023/09/16 05:47:09;;;;;;;3.67;2.78;;;;;;;23.64;45.39;101468.56;4976778;28;20066;-35
2023/09/16 05:49:36;;;;;;;3.95;2.67;;;;;;;23.62;45.57;101473.31;4979391;28;20435;-36
2023/09/16 05:52:03;;;;;;;4.80;2.97;;;;;;;23.63;45.80;101481.22;4981869;28;20488;-36
2023/09/16 05:54:30;;;;;;;2.95;2.65;;;;;;;23.62;45.15;101481.41;4982656;28;20409;-35
2023/09/16 05:56:56;;;;;;;3.75;2.55;;;;;;;23.62;45.79;101484.97;4982462;28;20054;-36
2023/09/16 05:59:23;;;;;;;3.17;2.50;;;;;;;23.61;45.48;101477.88;4979915;28;20069;-36
2023/09/16 06:01:50;;;;;;;3.10;2.38;;;;;;;23.61;45.22;101488.69;5012439;28;20116;-36
2023/09/16 06:04:17;;;;;;;3.70;2.83;;;;;;;23.62;45.26;101489.53;4981580;28;20129;-35
2023/09/16 06:06:45;;;;;;;3.85;2.83;;;;;;;23.62;45.75;101481.41;4984512;28;20055;-36
2023/09/16 06:09:12;;;;;;;5.85;3.63;;;;;;;23.62;45.52;101492.25;4984981;28;20058;-36
2023/09/16 06:11:39;;;;;;;5.20;3.72;;;;;;;23.61;45.47;101493.28;4986130;28;20435;-36
2023/09/16 06:14:05;;;;;;;6.60;4.57;;;;;;;23.61;45.13;101509.50;4983380;28;20073;-35
2023/09/16 06:16:33;;;;;;;7.28;4.70;;;;;;;23.61;45.26;101507.66;4984292;28;20520;-36
2023/09/16 06:19:00;;;;;;;8.43;5.32;;;;;;;23.61;46.00;101506.81;4991186;28;20368;-36
2023/09/16 06:21:28;;;;;;;9.40;5.97;;;;;;;23.59;45.90;101509.66;4996198;28;20137;-36
2023/09/16 06:23:54;;;;;;;8.93;5.43;;;;;;;23.59;45.45;101514.25;4990245;28;20053;-36
2023/09/16 06:26:21;;;;;;;6.85;4.93;;;;;;;23.59;45.52;101511.53;4990133;28;20055;-35
2023/09/16 06:28:48;;;;;;;8.88;5.65;;;;;;;23.59;45.73;101517.78;4988131;28;20116;-36
2023/09/16 06:31:15;;;;;;;8.25;5.07;;;;;;;23.60;45.64;101521.38;4990086;28;20041;-36
2023/09/16 06:33:41;;;;;;;7.85;5.57;;;;;;;23.60;45.34;101511.38;4985871;28;20186;-36
2023/09/16 06:36:08;;;;;;;7.57;5.03;;;;;;;23.62;45.53;101532.84;4988620;28;20054;-36
2023/09/16 06:38:35;;;;;;;6.95;5.30;;;;;;;23.63;45.80;101521.00;4984510;28;20084;-35
2023/09/16 06:41:02;;;;;;;7.85;5.32;;;;;;;23.63;45.38;101519.13;4982257;28;20501;-35
2023/09/16 06:43:28;;;;;;;10.32;5.78;;;;;;;23.63;45.81;101513.72;4979755;28;20043;-35
2023/09/16 06:45:55;;;;;;;8.55;5.68;;;;;;;23.65;45.79;101513.56;4980648;28;20054;-35
2023/09/16 06:48:21;;;;;;;9.23;5.40;;;;;;;23.64;45.21;101506.47;4983972;28;20094;-36
2023/09/16 06:50:50;;;;;;;8.90;6.05;;;;;;;23.66;45.58;101511.72;4989000;28;20097;-35
2023/09/16 06:53:17;;;;;;;11.23;6.18;;;;;;;23.66;45.37;101511.72;4991372;28;20054;-36
2023/09/16 06:55:43;;;;;;;9.38;6.38;;;;;;;23.66;45.38;101512.56;4990136;28;20049;-36
2023/09/16 06:58:10;;;;;;;11.07;6.70;;;;;;;23.67;45.51;101508.00;4993012;28;20113;-36
2023/09/16 07:00:54;;;;;;;10.00;6.20;;;;;;;23.68;45.55;101504.25;4988284;28;20096;-35
2023/09/16 07:03:22;;;;;;;9.82;6.57;;;;;;;23.68;45.16;101509.66;4990058;28;20051;-36
2023/09/16 07:05:49;;;;;;;9.75;7.07;;;;;;;23.70;45.23;101513.06;4994015;28;20045;-36
2023/09/16 07:08:19;;;;;;;9.90;6.57;;;;;;;23.70;45.24;101513.06;4997096;28;20100;-36
2023/09/16 07:10:46;;;;;;;9.60;6.43;;;;;;;23.70;45.58;101518.47;4988988;28;20061;-36
2023/09/16 07:13:13;;;;;;;11.00;6.97;;;;;;;23.71;45.62;101512.03;4988905;28;20046;-35
2023/09/16 07:15:40;;;;;;;11.05;6.78;;;;;;;23.71;45.01;101514.75;4982551;28;20054;-35
2023/09/16 07:18:06;;;;;;;10.65;7.20;;;;;;;23.72;45.21;101519.13;4982333;28;20057;-35
2023/09/16 07:20:34;;;;;;;11.55;7.90;;;;;;;23.73;45.43;101513.56;4983950;28;20052;-35
2023/09/16 07:23:01;;;;;;;12.82;7.65;;;;;;;23.74;45.32;101517.09;5007006;28;20038;-35
2023/09/16 07:25:28;;;;;;;11.30;7.68;;;;;;;23.74;45.82;101522.53;4981989;28;20421;-35
2023/09/16 07:27:54;;;;;;;13.90;8.57;;;;;;;23.75;45.01;101518.78;4982693;28;20501;-35
2023/09/16 07:30:22;;;;;;;14.15;8.48;;;;;;;23.75;45.81;101521.50;4979037;28;20182;-35
2023/09/16 07:32:50;;;;;;;13.32;8.20;;;;;;;23.75;45.01;101516.91;5007690;28;20381;-35
2023/09/16 07:35:17;;;;;;;14.77;9.25;;;;;;;23.75;45.44;101521.50;4982282;28;20057;-35
2023/09/16 07:37:44;;;;;;;14.18;9.05;;;;;;;23.76;45.15;101518.63;4979572;28;20046;-35
2023/09/16 07:40:11;;;;;;;14.30;8.77;;;;;;;23.77;45.49;101524.88;4984617;28;20058;-35
2023/09/16 07:42:38;;;;;;;14.45;9.00;;;;;;;23.78;45.70;101521.16;4980775;28;20490;-37
2023/09/16 07:45:05;;;;;;;16.85;11.50;;;;;;;23.78;45.40;101523.84;4983305;28;20055;-38
2023/09/16 07:47:32;;;;;;;20.20;11.95;;;;;;;23.78;45.86;101518.44;4982713;28;20184;-37
2023/09/16 07:50:00;;;;;;;21.90;12.55;;;;;;;23.78;45.83;101521.16;4982585;28;20046;-37
2023/09/16 07:52:27;;;;;;;21.73;11.68;;;;;;;23.78;46.55;101531.97;4982027;28;20363;-38
2023/09/16 07:54:59;;;;;;;22.10;12.90;;;;;;;23.75;46.77;101535.88;4981169;28;20042;-38
2023/09/16 07:57:28;;;;;;;22.70;12.85;;;;;;;23.73;46.83;101535.22;4980073;28;20058;-38
2023/09/16 07:59:55;;;;;;;21.85;13.88;;;;;;;23.70;47.16;101532.84;4980122;28;20432;-38
2023/09/16 08:02:21;;;;;;;18.27;12.88;;;;;;;23.67;47.18;101535.91;4978671;28;20047;-38
2023/09/16 08:04:48;;;;;;;19.73;11.05;;;;;;;23.64;47.17;101533.53;4980830;28;20526;-38
2023/09/16 08:07:15;;;;;;;16.38;10.43;;;;;;;23.62;47.43;101538.25;4980809;28;20065;-38
2023/09/16 08:09:42;;;;;;;16.77;8.77;;;;;;;23.60;47.36;101546.56;4981892;28;20058;-38
2023/09/16 08:12:09;;;;;;;12.68;8.23;;;;;;;23.58;47.94;101545.88;4980778;28;20077;-39
2023/09/16 08:14:35;;;;;;;10.77;6.95;;;;;;;23.56;47.28;101547.94;4981461;28;20062;-39
2023/09/16 08:17:03;;;;;;;10.35;6.57;;;;;;;23.56;47.87;101547.94;4980581;28;20462;-39
2023/09/16 08:19:31;;;;;;;12.40;6.88;;;;;;;23.56;47.89;101549.78;4983593;28;20344;-39
2023/09/16 08:21:58;;;;;;;10.90;6.80;;;;;;;23.57;48.11;101548.75;4985677;28;20135;-39
2023/09/16 08:24:24;;;;;;;12.02;6.82;;;;;;;23.56;47.66;101547.94;4984658;28;20057;-39
2023/09/16 08:26:51;;;;;;;11.50;7.68;;;;;;;23.58;48.01;101548.56;4984881;28;20057;-39
2023/09/16 08:29:18;;;;;;;12.90;6.85;;;;;;;23.59;48.51;101552.97;4960515;28;20363;-38
2023/09/16 08:31:44;;;;;;;15.98;6.03;;;;;;;23.61;48.41;101548.25;4976645;28;20050;-38
2023/09/16 08:34:11;;;;;;;10.45;6.20;;;;;;;23.62;48.67;101549.91;4958547;28;20421;-49
2023/09/16 08:36:38;;;;;;;8.85;5.82;;;;;;;23.65;48.29;101554.16;4982728;28;20462;-41
2023/09/16 08:39:05;;;;;;;9.20;6.75;;;;;;;23.67;48.27;101548.59;4974007;28;20062;-46
2023/09/16 08:41:52;;;;;;;7.60;5.40;;;;;;;23.68;48.58;101550.25;4974000;28;20055;-44
2023/09/16 08:44:23;;;;;;;8.57;5.40;;;;;;;23.73;48.67;101553.31;4973153;28;20062;-48
2023/09/16 08:46:57;;;;;;;13.93;5.15;;;;;;;23.76;48.26;101550.25;4973664;28;20069;-45
2023/09/16 08:49:27;;;;;;;14.90;5.45;;;;;;;23.80;47.91;101554.28;4972282;28;20058;-39
2023/09/16 08:51:58;;;;;;;15.60;6.55;;;;;;;23.83;48.24;101546.66;4977368;28;20136;-39
2023/09/16 08:54:27;;;;;;;11.85;5.18;;;;;;;23.87;48.49;101550.72;4950865;28;20084;-37
2023/09/16 08:56:54;;;;;;;12.13;4.50;;;;;;;23.92;47.69;101554.75;4985966;28;20054;-37
2023/09/16 08:59:21;;;;;;;11.70;4.40;;;;;;;23.95;48.18;101563.38;4978649;28;20055;-38
2023/09/16 09:01:48;;;;;;;11.25;4.97;;;;;;;23.98;47.99;101562.19;4976032;28;20042;-39
2023/09/16 09:04:16;;;;;;;12.73;4.55;;;;;;;24.01;48.36;101559.97;4977407;28;20073;-36
2023/09/16 09:06:43;;;;;;;9.27;4.30;;;;;;;24.04;47.93;101564.19;4982676;28;20059;-38
2023/09/16 09:09:10;;;;;;;9.85;4.03;;;;;;;24.08;47.79;101560.09;4980216;28;20623;-38
2023/09/16 09:11:37;;;;;;;8.07;4.43;;;;;;;24.11;47.78;101560.59;4974022;28;20068;-38
2023/09/16 09:14:05;;;;;;;10.80;3.90;;;;;;;24.16;47.40;101560.06;4947601;28;20443;-38
2023/09/16 09:16:34;;;;;;;14.82;3.90;;;;;;;24.19;47.32;101562.41;5014772;28;20439;-38
2023/09/16 09:19:01;;;;;;;7.63;3.90;;;;;;;24.22;47.54;101562.06;4978215;28;20442;-38
2023/09/16 09:21:29;;;;;;;10.60;4.10;;;;;;;24.27;47.54;101567.78;4981427;28;20073;-38
2023/09/16 09:23:58;;;;;;;7.20;4.20;;;;;;;24.33;47.91;101563.56;4975255;28;20047;-40
2023/09/16 09:26:24;;;;;;;11.15;4.32;;;;;;;24.36;47.86;101568.59;4976107;28;20578;-38
2023/09/16 09:28:51;;;;;;;6.35;3.67;;;;;;;24.40;47.48;101572.66;4975599;28;20061;-38
2023/09/16 09:31:19;;;;;;;11.32;4.57;;;;;;;24.42;47.96;101573.34;4976044;28;20057;-37
2023/09/16 09:33:48;;;;;;;29.48;17.27;;;;;;;24.44;48.28;101562.31;4944206;28;20054;-37
2023/09/16 09:36:16;;;;;;;32.38;17.88;;;;;;;24.44;47.89;101574.00;4964339;28;20051;-37
2023/09/16 09:38:44;;;;;;;26.58;14.98;;;;;;;24.46;48.01;101565.69;4957204;28;21469;-38
2023/09/16 09:41:12;;;;;;;23.17;14.15;;;;;;;24.50;48.10;101572.44;4963489;28;20437;-38
2023/09/16 09:43:38;;;;;;;23.58;14.00;;;;;;;24.52;47.84;101568.56;4962391;28;20046;-38
2023/09/16 09:46:05;;;;;;;21.35;12.68;;;;;;;24.52;48.23;101565.84;4958418;28;20094;-38
2023/09/16 09:48:36;;;;;;;18.00;10.65;;;;;;;24.56;47.70;101567.16;4956839;28;20055;-38
2023/09/16 09:51:03;;;;;;;16.48;10.52;;;;;;;24.61;47.65;101567.47;4971306;28;20389;-39
2023/09/16 09:53:33;;;;;;;14.02;9.10;;;;;;;24.66;47.43;101566.91;4945521;28;20055;-39
2023/09/16 09:55:59;;;;;;;16.38;9.52;;;;;;;24.72;47.51;101559.91;5025706;28;20058;-39
2023/09/16 09:58:26;;;;;;;13.38;8.75;;;;;;;24.77;47.40;101571.09;5017633;28;20377;-39
2023/09/16 10:00:53;;;;;;;10.48;7.22;;;;;;;24.81;47.68;101565.13;4984268;28;20120;-39
2023/09/16 10:03:22;;;;;;;12.38;7.75;;;;;;;24.85;47.46;101563.75;4987801;28;20141;-38
2023/09/16 10:05:50;;;;;;;15.07;7.90;;;;;;;24.90;46.95;101560.47;4988736;28;20046;-39
2023/09/16 10:08:17;;;;;;;10.48;6.50;;;;;;;24.95;47.28;101562.63;4985866;28;20069;-39
2023/09/16 10:10:46;;;;;;;11.85;6.72;;;;;;;24.98;46.81;101571.25;4984656;28;20054;-38
2023/09/16 10:13:14;;;;;;;10.75;6.47;;;;;;;25.02;46.78;101566.31;4962853;28;20046;-39
2023/09/16 10:15:41;;;;;;;8.50;5.97;;;;;;;25.05;47.15;101569.50;5023911;28;20050;-39
2023/09/16 10:18:08;;;;;;;11.85;6.30;;;;;;;25.09;46.51;101567.31;4989832;28;20050;-39
2023/09/16 10:20:38;;;;;;;11.10;7.05;;;;;;;25.11;47.02;101566.06;4976796;28;20077;-39
2023/09/16 10:23:06;;;;;;;10.35;5.65;;;;;;;25.16;46.87;101570.09;4963596;28;20065;-39
2023/09/16 10:25:34;;;;;;;17.25;7.30;;;;;;;25.17;46.50;101567.22;4973687;28;20321;-39
2023/09/16 10:28:07;;;;;;;8.35;6.03;;;;;;;25.21;46.81;101582.13;4976513;28;20054;-38
2023/09/16 10:30:35;;;;;;;10.68;6.10;;;;;;;25.23;47.17;101568.34;4969706;28;20057;-39
2023/09/16 10:33:04;;;;;;;9.80;5.63;;;;;;;25.24;46.83;101570.03;4974003;28;20543;-39
2023/09/16 10:35:34;;;;;;;7.85;5.25;;;;;;;25.26;47.00;101568.00;4977868;28;20080;-39
2023/09/16 10:38:04;;;;;;;9.77;5.95;;;;;;;25.28;46.81;101566.75;4978957;28;20227;-39
2023/09/16 10:40:31;;;;;;;7.57;4.78;;;;;;;25.30;47.20;101558.47;4982158;28;20050;-39
2023/09/16 10:43:00;;;;;;;11.68;4.53;;;;;;;25.34;46.71;101562.50;4985598;28;20344;-39
2023/09/16 10:45:27;;;;;;;13.13;5.72;;;;;;;25.35;46.69;101556.03;4986348;28;20442;-39
2023/09/16 10:47:54;;;;;;;7.45;4.40;;;;;;;25.36;46.62;101553.13;4985302;28;20065;-39
2023/09/16 10:50:25;;;;;;;9.77;5.03;;;;;;;25.38;47.04;101558.38;4978583;28;20053;-39
2023/09/16 10:53:00;;;;;;;9.32;4.60;;;;;;;25.38;47.14;101546.69;4976796;28;20385;-39
2023/09/16 10:55:29;;;;;;;7.55;4.60;;;;;;;25.39;46.70;101549.19;4994343;28;20138;-39
2023/09/16 10:58:23;;;;;;;19.60;11.35;;;;;;;25.40;46.94;101541.91;4983335;28;20050;-39
2023/09/16 11:00:54;;;;;;;;;;;;;;;25.41;46.56;101543.56;4973301;28;20052;-39
2023/09/16 11:03:29;;;;;;;14.43;7.13;;;;;;;25.49;46.37;101540.81;4983519;28;19930;-38
2023/09/16 11:05:57;;;;;;;14.18;5.88;;;;;;;25.54;46.08;101539.19;4978930;28;20048;-37
2023/09/16 11:08:25;;;;;;;8.18;5.57;;;;;;;25.61;46.06;101539.31;4977336;28;20323;-39
2023/09/16 11:10:53;;;;;;;7.35;5.10;;;;;;;25.68;45.87;101539.38;4978962;28;20057;-39
2023/09/16 11:13:21;;;;;;;8.82;4.57;;;;;;;25.72;45.71;101533.38;4975100;28;20361;-40
2023/09/16 11:15:47;;;;;;;6.10;4.25;;;;;;;25.75;44.80;101538.44;4970092;28;20317;-39
2023/09/16 11:18:17;;;;;;;9.20;3.80;;;;;;;25.81;45.04;101535.03;4989274;28;20074;-39
2023/09/16 11:20:45;;;;;;;7.90;4.38;;;;;;;25.89;44.73;101536.78;4972909;28;20050;-40
2023/09/16 11:23:12;;;;;;;5.40;3.78;;;;;;;25.93;44.45;101531.81;4971648;28;20054;-40
2023/09/16 11:25:41;;;;;;;4.65;2.95;;;;;;;25.97;43.96;101539.41;4977367;28;20050;-43